オウル の空港の天気 - METARとTAF

オウル空港 ( EFOU / OUL ) - フィンランド Oulunsalo
飛行場実況気象(Metar)
観測時間05/23 03:50 EEST (05/23 00:50 UTC)
風向・風速北 6m/s
視程10km以上
天気現象
少しの雲 雲底高度 2470m
全天の8割程度の雲 雲底高度 2900m
気温11℃
湿度62%
気圧1017hPa
METAREFOU 230050Z AUTO 35011KT 9999 FEW081/// BKN095/// 11/04 Q1017
過去の天気等 Google飛行場航空写真 Wunderground天気予報

過去48時間のMETAR

飛行場予報(TAF)
発表時間: 5/23 02:36 EEST (5/22 23:36 UTC)
予報対象時間: 23日3時 EEST ~ 24日3時 EEST
風向・風速北北西 6m/s
視程10km以上
なし
23日3時 EEST ~ 23日5時 EEST に一時的に
風向・風速北 8m/s 瞬間風速 13m/s
全天の4割程度の積乱雲 雲底高度 1,520m
23日3時 EEST から 確率 30% で
天気現象雷雨
TAF EFOU 222336Z 2300/2324 34012KT CAVOK
TEMPO 2300/2302 35015G25KT SCT050CB
PROB30 2300/2302 TSRA